sensor_id;sensor_type;location;lat;lon;timestamp;pressure;altitude;pressure_sealevel;temperature;humidity
39209;BME280;24929;51.982;4.664;2022-11-23T00:00:23;75596.69;;;-143.36;nan
39209;BME280;24929;51.982;4.664;2022-11-23T00:02:53;75562.56;;;-143.36;nan
39209;BME280;24929;51.982;4.664;2022-11-23T00:05:18;75594.66;;;-143.36;nan
39209;BME280;24929;51.982;4.664;2022-11-23T00:07:43;75638.81;;;-143.36;nan
39209;BME280;24929;51.982;4.664;2022-11-23T00:10:09;75634.78;;;-143.36;nan
39209;BME280;24929;51.982;4.664;2022-11-23T00:12:34;75610.72;;;-143.36;nan
39209;BME280;24929;51.982;4.664;2022-11-23T00:15:00;75626.78;;;-143.36;nan
39209;BME280;24929;51.982;4.664;2022-11-23T00:17:25;75614.72;;;-143.36;nan
39209;BME280;24929;51.982;4.664;2022-11-23T00:19:50;75602.69;;;-143.36;nan
39209;BME280;24929;51.982;4.664;2022-11-23T00:22:16;75594.66;;;-143.36;nan
39209;BME280;24929;51.982;4.664;2022-11-23T00:24:41;75608.72;;;-143.36;nan
39209;BME280;24929;51.982;4.664;2022-11-23T00:27:06;75592.66;;;-143.36;nan
39209;BME280;24929;51.982;4.664;2022-11-23T00:29:32;75600.69;;;-143.36;nan
39209;BME280;24929;51.982;4.664;2022-11-23T00:31:57;75578.63;;;-143.36;nan
39209;BME280;24929;51.982;4.664;2022-11-23T00:34:22;75608.72;;;-143.36;nan
39209;BME280;24929;51.982;4.664;2022-11-23T00:36:49;75556.56;;;-143.36;nan
39209;BME280;24929;51.982;4.664;2022-11-23T00:39:15;75610.72;;;-143.36;nan
39209;BME280;24929;51.982;4.664;2022-11-23T00:41:40;75580.63;;;-143.36;nan
39209;BME280;24929;51.982;4.664;2022-11-23T00:44:05;75572.59;;;-143.36;nan
39209;BME280;24929;51.982;4.664;2022-11-23T00:46:32;75584.63;;;-143.36;nan
39209;BME280;24929;51.982;4.664;2022-11-23T00:48:57;75596.69;;;-143.36;nan
39209;BME280;24929;51.982;4.664;2022-11-23T00:51:41;75530.47;;;-143.36;nan
39209;BME280;24929;51.982;4.664;2022-11-23T00:54:06;75570.59;;;-143.36;nan
39209;BME280;24929;51.982;4.664;2022-11-23T00:56:33;75534.47;;;-143.36;nan
39209;BME280;24929;51.982;4.664;2022-11-23T00:59:00;75584.63;;;-143.36;nan
39209;BME280;24929;51.982;4.664;2022-11-23T01:01:35;75544.50;;;-143.36;nan
39209;BME280;24929;51.982;4.664;2022-11-23T01:04:04;75594.66;;;-143.36;nan
39209;BME280;24929;51.982;4.664;2022-11-23T01:06:32;75580.63;;;-143.36;nan
39209;BME280;24929;51.982;4.664;2022-11-23T01:09:05;75578.63;;;-143.36;nan
39209;BME280;24929;51.982;4.664;2022-11-23T01:11:32;75568.59;;;-143.36;nan
39209;BME280;24929;51.982;4.664;2022-11-23T01:13:57;75554.53;;;-143.36;nan
39209;BME280;24929;51.982;4.664;2022-11-23T01:16:26;75530.47;;;-143.36;nan
39209;BME280;24929;51.982;4.664;2022-11-23T01:18:55;75528.47;;;-143.36;nan
39209;BME280;24929;51.982;4.664;2022-11-23T01:21:21;75546.53;;;-143.36;nan
39209;BME280;24929;51.982;4.664;2022-11-23T01:23:46;75552.53;;;-143.36;nan
39209;BME280;24929;51.982;4.664;2022-11-23T01:26:11;75556.56;;;-143.36;nan
39209;BME280;24929;51.982;4.664;2022-11-23T01:28:38;75524.44;;;-143.36;nan
39209;BME280;24929;51.982;4.664;2022-11-23T01:31:12;75496.38;;;-143.36;nan
39209;BME280;24929;51.982;4.664;2022-11-23T01:33:38;75546.53;;;-143.36;nan
39209;BME280;24929;51.982;4.664;2022-11-23T01:36:15;75500.38;;;-143.36;nan
39209;BME280;24929;51.982;4.664;2022-11-23T01:38:42;75572.59;;;-143.36;nan
39209;BME280;24929;51.982;4.664;2022-11-23T01:41:11;75548.53;;;-143.36;nan
39209;BME280;24929;51.982;4.664;2022-11-23T01:43:37;75584.63;;;-143.36;nan
39209;BME280;24929;51.982;4.664;2022-11-23T01:46:04;75556.56;;;-143.36;nan
39209;BME280;24929;51.982;4.664;2022-11-23T01:51:02;75552.53;;;-143.36;nan
39209;BME280;24929;51.982;4.664;2022-11-23T01:53:29;75572.59;;;-143.36;nan
39209;BME280;24929;51.982;4.664;2022-11-23T01:56:00;75580.63;;;-143.36;nan
39209;BME280;24929;51.982;4.664;2022-11-23T01:58:31;75588.66;;;-143.36;nan
39209;BME280;24929;51.982;4.664;2022-11-23T02:00:58;75582.63;;;-143.36;nan
39209;BME280;24929;51.982;4.664;2022-11-23T02:03:24;75592.66;;;-143.36;nan
39209;BME280;24929;51.982;4.664;2022-11-23T02:05:54;75560.56;;;-143.36;nan
39209;BME280;24929;51.982;4.664;2022-11-23T02:08:24;75588.66;;;-143.36;nan
39209;BME280;24929;51.982;4.664;2022-11-23T02:10:50;75608.72;;;-143.36;nan
39209;BME280;24929;51.982;4.664;2022-11-23T02:13:16;75598.69;;;-143.36;nan
39209;BME280;24929;51.982;4.664;2022-11-23T02:15:41;75588.66;;;-143.36;nan
39209;BME280;24929;51.982;4.664;2022-11-23T02:18:19;75564.56;;;-143.36;nan
39209;BME280;24929;51.982;4.664;2022-11-23T02:20:46;75644.81;;;-143.36;nan
39209;BME280;24929;51.982;4.664;2022-11-23T02:28:17;75606.72;;;-143.36;nan
39209;BME280;24929;51.982;4.664;2022-11-23T02:30:46;75626.78;;;-143.36;nan
39209;BME280;24929;51.982;4.664;2022-11-23T02:33:12;75648.84;;;-143.36;nan
39209;BME280;24929;51.982;4.664;2022-11-23T02:35:48;75608.72;;;-143.36;nan
39209;BME280;24929;51.982;4.664;2022-11-23T02:38:15;75678.94;;;-143.36;nan
39209;BME280;24929;51.982;4.664;2022-11-23T02:40:41;75688.97;;;-143.36;nan
39209;BME280;24929;51.982;4.664;2022-11-23T02:43:06;75680.94;;;-143.36;nan
39209;BME280;24929;51.982;4.664;2022-11-23T02:45:52;75614.72;;;-143.36;nan
39209;BME280;24929;51.982;4.664;2022-11-23T02:48:18;75670.91;;;-143.36;nan
39209;BME280;24929;51.982;4.664;2022-11-23T02:50:44;75680.94;;;-143.36;nan
39209;BME280;24929;51.982;4.664;2022-11-23T02:53:11;75664.88;;;-143.36;nan
39209;BME280;24929;51.982;4.664;2022-11-23T02:55:36;75684.94;;;-143.36;nan
39209;BME280;24929;51.982;4.664;2022-11-23T02:58:03;75650.84;;;-143.36;nan
39209;BME280;24929;51.982;4.664;2022-11-23T03:00:29;75697.00;;;-143.36;nan
39209;BME280;24929;51.982;4.664;2022-11-23T03:02:55;75715.03;;;-143.36;nan
39209;BME280;24929;51.982;4.664;2022-11-23T03:05:20;75692.97;;;-143.36;nan
39209;BME280;24929;51.982;4.664;2022-11-23T03:07:46;75686.97;;;-143.36;nan
39209;BME280;24929;51.982;4.664;2022-11-23T03:10:12;75709.03;;;-143.36;nan
39209;BME280;24929;51.982;4.664;2022-11-23T03:12:37;75648.84;;;-143.36;nan
39209;BME280;24929;51.982;4.664;2022-11-23T03:15:02;75646.84;;;-143.36;nan
39209;BME280;24929;51.982;4.664;2022-11-23T03:17:29;75628.78;;;-143.36;nan
39209;BME280;24929;51.982;4.664;2022-11-23T03:19:54;75666.91;;;-143.36;nan
39209;BME280;24929;51.982;4.664;2022-11-23T03:22:19;75636.81;;;-143.36;nan
39209;BME280;24929;51.982;4.664;2022-11-23T03:24:45;75628.78;;;-143.36;nan
39209;BME280;24929;51.982;4.664;2022-11-23T03:27:10;75634.78;;;-143.36;nan
39209;BME280;24929;51.982;4.664;2022-11-23T03:29:35;75642.81;;;-143.36;nan
39209;BME280;24929;51.982;4.664;2022-11-23T03:32:01;75652.84;;;-143.36;nan
39209;BME280;24929;51.982;4.664;2022-11-23T03:34:26;75626.78;;;-143.36;nan
39209;BME280;24929;51.982;4.664;2022-11-23T03:36:52;75664.88;;;-143.36;nan
39209;BME280;24929;51.982;4.664;2022-11-23T03:39:17;75646.84;;;-143.36;nan
39209;BME280;24929;51.982;4.664;2022-11-23T03:41:42;75622.75;;;-143.36;nan
39209;BME280;24929;51.982;4.664;2022-11-23T03:44:08;75610.72;;;-143.36;nan
39209;BME280;24929;51.982;4.664;2022-11-23T03:46:33;75648.84;;;-143.36;nan
39209;BME280;24929;51.982;4.664;2022-11-23T03:48:58;75642.81;;;-143.36;nan
39209;BME280;24929;51.982;4.664;2022-11-23T03:51:24;75634.78;;;-143.36;nan
39209;BME280;24929;51.982;4.664;2022-11-23T03:53:49;75648.84;;;-143.36;nan
39209;BME280;24929;51.982;4.664;2022-11-23T03:56:14;75626.78;;;-143.36;nan
39209;BME280;24929;51.982;4.664;2022-11-23T03:58:40;75636.81;;;-143.36;nan
39209;BME280;24929;51.982;4.664;2022-11-23T04:01:05;75618.75;;;-143.36;nan
39209;BME280;24929;51.982;4.664;2022-11-23T04:03:31;75594.66;;;-143.36;nan
39209;BME280;24929;51.982;4.664;2022-11-23T04:05:57;75600.69;;;-143.36;nan
39209;BME280;24929;51.982;4.664;2022-11-23T04:08:22;75602.69;;;-143.36;nan
39209;BME280;24929;51.982;4.664;2022-11-23T04:10:48;75632.78;;;-143.36;nan
39209;BME280;24929;51.982;4.664;2022-11-23T04:13:13;75644.81;;;-143.36;nan
39209;BME280;24929;51.982;4.664;2022-11-23T04:15:38;75648.84;;;-143.36;nan
39209;BME280;24929;51.982;4.664;2022-11-23T04:18:04;75642.81;;;-143.36;nan
39209;BME280;24929;51.982;4.664;2022-11-23T04:20:29;75636.81;;;-143.36;nan
39209;BME280;24929;51.982;4.664;2022-11-23T04:22:54;75612.72;;;-143.36;nan
39209;BME280;24929;51.982;4.664;2022-11-23T04:25:20;75632.78;;;-143.36;nan
39209;BME280;24929;51.982;4.664;2022-11-23T04:27:45;75660.88;;;-143.36;nan
39209;BME280;24929;51.982;4.664;2022-11-23T04:30:11;75648.84;;;-143.36;nan
39209;BME280;24929;51.982;4.664;2022-11-23T04:32:36;75648.84;;;-143.36;nan
39209;BME280;24929;51.982;4.664;2022-11-23T04:35:03;75656.88;;;-143.36;nan
39209;BME280;24929;51.982;4.664;2022-11-23T04:37:28;75654.84;;;-143.36;nan
39209;BME280;24929;51.982;4.664;2022-11-23T04:39:53;75666.91;;;-143.36;nan
39209;BME280;24929;51.982;4.664;2022-11-23T04:42:19;75658.88;;;-143.36;nan
39209;BME280;24929;51.982;4.664;2022-11-23T04:44:45;75644.81;;;-143.36;nan
39209;BME280;24929;51.982;4.664;2022-11-23T04:47:10;75646.84;;;-143.36;nan
39209;BME280;24929;51.982;4.664;2022-11-23T04:49:36;75654.84;;;-143.36;nan
39209;BME280;24929;51.982;4.664;2022-11-23T04:52:01;75664.88;;;-143.36;nan
39209;BME280;24929;51.982;4.664;2022-11-23T04:54:27;75670.91;;;-143.36;nan
39209;BME280;24929;51.982;4.664;2022-11-23T04:56:52;75648.84;;;-143.36;nan
39209;BME280;24929;51.982;4.664;2022-11-23T04:59:18;75620.75;;;-143.36;nan
39209;BME280;24929;51.982;4.664;2022-11-23T05:01:44;75634.78;;;-143.36;nan
39209;BME280;24929;51.982;4.664;2022-11-23T05:04:09;75646.84;;;-143.36;nan
39209;BME280;24929;51.982;4.664;2022-11-23T05:06:35;75638.81;;;-143.36;nan
39209;BME280;24929;51.982;4.664;2022-11-23T05:09:00;75654.84;;;-143.36;nan
39209;BME280;24929;51.982;4.664;2022-11-23T05:11:25;75668.91;;;-143.36;nan
39209;BME280;24929;51.982;4.664;2022-11-23T05:13:51;75666.91;;;-143.36;nan
39209;BME280;24929;51.982;4.664;2022-11-23T05:16:16;75664.88;;;-143.36;nan
39209;BME280;24929;51.982;4.664;2022-11-23T05:18:42;75686.97;;;-143.36;nan
39209;BME280;24929;51.982;4.664;2022-11-23T05:21:07;75668.91;;;-143.36;nan
39209;BME280;24929;51.982;4.664;2022-11-23T05:23:32;75664.88;;;-143.36;nan
39209;BME280;24929;51.982;4.664;2022-11-23T05:25:58;75666.91;;;-143.36;nan
39209;BME280;24929;51.982;4.664;2022-11-23T05:28:23;75709.03;;;-143.36;nan
39209;BME280;24929;51.982;4.664;2022-11-23T05:30:48;75692.97;;;-143.36;nan
39209;BME280;24929;51.982;4.664;2022-11-23T05:33:14;75694.97;;;-143.36;nan
39209;BME280;24929;51.982;4.664;2022-11-23T05:35:39;75658.88;;;-143.36;nan
39209;BME280;24929;51.982;4.664;2022-11-23T05:38:05;75648.84;;;-143.36;nan
39209;BME280;24929;51.982;4.664;2022-11-23T05:40:30;75678.94;;;-143.36;nan
39209;BME280;24929;51.982;4.664;2022-11-23T05:42:56;75644.81;;;-143.36;nan
39209;BME280;24929;51.982;4.664;2022-11-23T05:45:22;75652.84;;;-143.36;nan
39209;BME280;24929;51.982;4.664;2022-11-23T05:47:52;75626.78;;;-143.36;nan
39209;BME280;24929;51.982;4.664;2022-11-23T05:50:19;75680.94;;;-143.36;nan
39209;BME280;24929;51.982;4.664;2022-11-23T05:52:44;75697.00;;;-143.36;nan
39209;BME280;24929;51.982;4.664;2022-11-23T05:55:10;75682.94;;;-143.36;nan
39209;BME280;24929;51.982;4.664;2022-11-23T05:57:35;75713.03;;;-143.36;nan
39209;BME280;24929;51.982;4.664;2022-11-23T06:00:01;75684.94;;;-143.36;nan
39209;BME280;24929;51.982;4.664;2022-11-23T06:02:27;75737.13;;;-143.36;nan
39209;BME280;24929;51.982;4.664;2022-11-23T06:04:52;75743.13;;;-143.36;nan
39209;BME280;24929;51.982;4.664;2022-11-23T06:07:17;75725.06;;;-143.36;nan
39209;BME280;24929;51.982;4.664;2022-11-23T06:09:43;75731.09;;;-143.36;nan
39209;BME280;24929;51.982;4.664;2022-11-23T06:12:08;75747.16;;;-143.36;nan
39209;BME280;24929;51.982;4.664;2022-11-23T06:14:33;75747.16;;;-143.36;nan
39209;BME280;24929;51.982;4.664;2022-11-23T06:16:59;75761.19;;;-143.36;nan
39209;BME280;24929;51.982;4.664;2022-11-23T06:19:24;75751.16;;;-143.36;nan
39209;BME280;24929;51.982;4.664;2022-11-23T06:21:49;75783.25;;;-143.36;nan
39209;BME280;24929;51.982;4.664;2022-11-23T06:24:15;75781.25;;;-143.36;nan
39209;BME280;24929;51.982;4.664;2022-11-23T06:26:40;75787.28;;;-143.36;nan
39209;BME280;24929;51.982;4.664;2022-11-23T06:29:06;75785.28;;;-143.36;nan
39209;BME280;24929;51.982;4.664;2022-11-23T06:31:31;75829.41;;;-143.36;nan
39209;BME280;24929;51.982;4.664;2022-11-23T06:33:56;75837.44;;;-143.36;nan
39209;BME280;24929;51.982;4.664;2022-11-23T06:36:22;75857.50;;;-143.36;nan
39209;BME280;24929;51.982;4.664;2022-11-23T06:38:47;75831.41;;;-143.36;nan
39209;BME280;24929;51.982;4.664;2022-11-23T06:41:12;75823.38;;;-143.36;nan
39209;BME280;24929;51.982;4.664;2022-11-23T06:43:38;75825.41;;;-143.36;nan
39209;BME280;24929;51.982;4.664;2022-11-23T06:46:04;75845.47;;;-143.36;nan
39209;BME280;24929;51.982;4.664;2022-11-23T06:48:32;75837.44;;;-143.36;nan
39209;BME280;24929;51.982;4.664;2022-11-23T06:50:58;75859.50;;;-143.36;nan
39209;BME280;24929;51.982;4.664;2022-11-23T06:53:25;75861.50;;;-143.36;nan
39209;BME280;24929;51.982;4.664;2022-11-23T06:56:02;75829.41;;;-143.36;nan
39209;BME280;24929;51.982;4.664;2022-11-23T06:58:36;75857.50;;;-143.36;nan
39209;BME280;24929;51.982;4.664;2022-11-23T07:01:04;75803.31;;;-143.36;nan
39209;BME280;24929;51.982;4.664;2022-11-23T07:03:30;75833.41;;;-143.36;nan
39209;BME280;24929;51.982;4.664;2022-11-23T07:05:56;75835.44;;;-143.36;nan
39209;BME280;24929;51.982;4.664;2022-11-23T07:08:22;75851.47;;;-143.36;nan
39209;BME280;24929;51.982;4.664;2022-11-23T07:10:48;75811.34;;;-143.36;nan
39209;BME280;24929;51.982;4.664;2022-11-23T07:13:14;75821.38;;;-143.36;nan
39209;BME280;24929;51.982;4.664;2022-11-23T07:15:40;75815.38;;;-143.36;nan
39209;BME280;24929;51.982;4.664;2022-11-23T07:18:07;75835.44;;;-143.36;nan
39209;BME280;24929;51.982;4.664;2022-11-23T07:20:34;75825.41;;;-143.36;nan
39209;BME280;24929;51.982;4.664;2022-11-23T07:23:04;75829.41;;;-143.36;nan
39209;BME280;24929;51.982;4.664;2022-11-23T07:25:32;75789.28;;;-143.36;nan
39209;BME280;24929;51.982;4.664;2022-11-23T07:27:58;75797.31;;;-143.36;nan
39209;BME280;24929;51.982;4.664;2022-11-23T07:34:13;75743.13;;;-143.36;nan
39209;BME280;24929;51.982;4.664;2022-11-23T07:36:48;75723.06;;;-143.36;nan
39209;BME280;24929;51.982;4.664;2022-11-23T07:39:21;75757.19;;;-143.36;nan
39209;BME280;24929;51.982;4.664;2022-11-23T07:41:49;75749.16;;;-143.36;nan
39209;BME280;24929;51.982;4.664;2022-11-23T07:47:39;75803.31;;;-143.36;nan
39209;BME280;24929;51.982;4.664;2022-11-23T07:50:06;75753.16;;;-143.36;nan
39209;BME280;24929;51.982;4.664;2022-11-23T07:52:34;75759.19;;;-143.36;nan
39209;BME280;24929;51.982;4.664;2022-11-23T07:55:00;75777.25;;;-143.36;nan
39209;BME280;24929;51.982;4.664;2022-11-23T07:57:26;75759.19;;;-143.36;nan
39209;BME280;24929;51.982;4.664;2022-11-23T07:59:51;75773.22;;;-143.36;nan
39209;BME280;24929;51.982;4.664;2022-11-23T08:02:17;75757.19;;;-143.36;nan
39209;BME280;24929;51.982;4.664;2022-11-23T08:04:43;75767.22;;;-143.36;nan
39209;BME280;24929;51.982;4.664;2022-11-23T08:07:08;75751.16;;;-143.36;nan
39209;BME280;24929;51.982;4.664;2022-11-23T08:09:34;75761.19;;;-143.36;nan
39209;BME280;24929;51.982;4.664;2022-11-23T08:12:00;75765.22;;;-143.36;nan
39209;BME280;24929;51.982;4.664;2022-11-23T08:14:26;75769.22;;;-143.36;nan
39209;BME280;24929;51.982;4.664;2022-11-23T08:16:52;75741.13;;;-143.36;nan
39209;BME280;24929;51.982;4.664;2022-11-23T08:19:19;75743.13;;;-143.36;nan
39209;BME280;24929;51.982;4.664;2022-11-23T08:21:45;75763.19;;;-143.36;nan
39209;BME280;24929;51.982;4.664;2022-11-23T08:24:11;75737.13;;;-143.36;nan
39209;BME280;24929;51.982;4.664;2022-11-23T08:26:37;75745.13;;;-143.36;nan
39209;BME280;24929;51.982;4.664;2022-11-23T08:29:04;75737.13;;;-143.36;nan
39209;BME280;24929;51.982;4.664;2022-11-23T08:31:30;75731.09;;;-143.36;nan
39209;BME280;24929;51.982;4.664;2022-11-23T08:33:56;75769.22;;;-143.36;nan
39209;BME280;24929;51.982;4.664;2022-11-23T08:36:22;75715.03;;;-143.36;nan
39209;BME280;24929;51.982;4.664;2022-11-23T08:38:48;75735.09;;;-143.36;nan
39209;BME280;24929;51.982;4.664;2022-11-23T08:41:16;75676.94;;;-143.36;nan
39209;BME280;24929;51.982;4.664;2022-11-23T08:43:48;75668.91;;;-143.36;nan
39209;BME280;24929;51.982;4.664;2022-11-23T08:46:14;75707.03;;;-143.36;nan
39209;BME280;24929;51.982;4.664;2022-11-23T08:48:40;75688.97;;;-143.36;nan
39209;BME280;24929;51.982;4.664;2022-11-23T09:00:41;75664.88;;;-143.36;nan
39209;BME280;24929;51.982;4.664;2022-11-23T09:03:06;75682.94;;;-143.36;nan
39209;BME280;24929;51.982;4.664;2022-11-23T09:05:32;75678.94;;;-143.36;nan
39209;BME280;24929;51.982;4.664;2022-11-23T09:08:00;75650.84;;;-143.36;nan
39209;BME280;24929;51.982;4.664;2022-11-23T09:10:26;75713.03;;;-143.36;nan
39209;BME280;24929;51.982;4.664;2022-11-23T09:12:51;75697.00;;;-143.36;nan
39209;BME280;24929;51.982;4.664;2022-11-23T09:15:17;75717.06;;;-143.36;nan
39209;BME280;24929;51.982;4.664;2022-11-23T09:17:43;75713.03;;;-143.36;nan
39209;BME280;24929;51.982;4.664;2022-11-23T09:20:09;75745.13;;;-143.36;nan
39209;BME280;24929;51.982;4.664;2022-11-23T09:22:34;75739.13;;;-143.36;nan
39209;BME280;24929;51.982;4.664;2022-11-23T09:25:00;75737.13;;;-143.36;nan
39209;BME280;24929;51.982;4.664;2022-11-23T09:27:25;75727.09;;;-143.36;nan
39209;BME280;24929;51.982;4.664;2022-11-23T09:29:51;75735.09;;;-143.36;nan
39209;BME280;24929;51.982;4.664;2022-11-23T09:32:16;75809.34;;;-143.36;nan
39209;BME280;24929;51.982;4.664;2022-11-23T09:34:41;75755.16;;;-143.36;nan
39209;BME280;24929;51.982;4.664;2022-11-23T09:37:07;75739.13;;;-143.36;nan
39209;BME280;24929;51.982;4.664;2022-11-23T09:39:33;75749.16;;;-143.36;nan
39209;BME280;24929;51.982;4.664;2022-11-23T09:42:08;75747.16;;;-143.36;nan
39209;BME280;24929;51.982;4.664;2022-11-23T09:50:33;75717.06;;;-143.36;nan
39209;BME280;24929;51.982;4.664;2022-11-23T09:53:08;75705.00;;;-143.36;nan
39209;BME280;24929;51.982;4.664;2022-11-23T09:58:05;75735.09;;;-143.36;nan
39209;BME280;24929;51.982;4.664;2022-11-23T10:00:36;75751.16;;;-143.36;nan
39209;BME280;24929;51.982;4.664;2022-11-23T10:03:03;75733.09;;;-143.36;nan
39209;BME280;24929;51.982;4.664;2022-11-23T10:05:32;75727.09;;;-143.36;nan
39209;BME280;24929;51.982;4.664;2022-11-23T10:10:52;75646.84;;;-143.36;nan
39209;BME280;24929;51.982;4.664;2022-11-23T10:24:32;75713.03;;;-143.36;nan
39209;BME280;24929;51.982;4.664;2022-11-23T10:26:59;75739.13;;;-143.36;nan
39209;BME280;24929;51.982;4.664;2022-11-23T10:29:34;75701.00;;;-143.36;nan
39209;BME280;24929;51.982;4.664;2022-11-23T10:32:01;75773.22;;;-143.36;nan
39209;BME280;24929;51.982;4.664;2022-11-23T10:34:47;75709.03;;;-143.36;nan
39209;BME280;24929;51.982;4.664;2022-11-23T10:37:15;75717.06;;;-143.36;nan
39209;BME280;24929;51.982;4.664;2022-11-23T10:39:41;75717.06;;;-143.36;nan
39209;BME280;24929;51.982;4.664;2022-11-23T10:42:23;75682.94;;;-143.36;nan
39209;BME280;24929;51.982;4.664;2022-11-23T10:44:50;75735.09;;;-143.36;nan
39209;BME280;24929;51.982;4.664;2022-11-23T10:47:40;75634.78;;;-143.36;nan
39209;BME280;24929;51.982;4.664;2022-11-23T10:52:59;75664.88;;;-143.36;nan
39209;BME280;24929;51.982;4.664;2022-11-23T10:55:30;75660.88;;;-143.36;nan
39209;BME280;24929;51.982;4.664;2022-11-23T10:57:56;75682.94;;;-143.36;nan
39209;BME280;24929;51.982;4.664;2022-11-23T11:00:24;75715.03;;;-143.36;nan
39209;BME280;24929;51.982;4.664;2022-11-23T11:02:52;75674.91;;;-143.36;nan
39209;BME280;24929;51.982;4.664;2022-11-23T11:05:35;75707.03;;;-143.36;nan
39209;BME280;24929;51.982;4.664;2022-11-23T11:08:11;75699.00;;;-143.36;nan
39209;BME280;24929;51.982;4.664;2022-11-23T11:10:46;75686.97;;;-143.36;nan
39209;BME280;24929;51.982;4.664;2022-11-23T11:13:31;75664.88;;;-143.36;nan
39209;BME280;24929;51.982;4.664;2022-11-23T11:16:03;75624.75;;;-143.36;nan
39209;BME280;24929;51.982;4.664;2022-11-23T11:18:34;75628.78;;;-143.36;nan
39209;BME280;24929;51.982;4.664;2022-11-23T11:21:22;75634.78;;;-143.36;nan
39209;BME280;24929;51.982;4.664;2022-11-23T11:23:52;75570.59;;;-143.36;nan
39209;BME280;24929;51.982;4.664;2022-11-23T11:26:22;75576.63;;;-143.36;nan
39209;BME280;24929;51.982;4.664;2022-11-23T11:28:51;75646.84;;;-143.36;nan
39209;BME280;24929;51.982;4.664;2022-11-23T11:36:20;75642.81;;;-143.36;nan
39209;BME280;24929;51.982;4.664;2022-11-23T11:38:50;75566.59;;;-143.36;nan
39209;BME280;24929;51.982;4.664;2022-11-23T11:41:19;75604.69;;;-143.36;nan
39209;BME280;24929;51.982;4.664;2022-11-23T11:43:54;75582.63;;;-143.36;nan
39209;BME280;24929;51.982;4.664;2022-11-23T11:46:28;75592.66;;;-143.36;nan
39209;BME280;24929;51.982;4.664;2022-11-23T11:49:14;75558.56;;;-143.36;nan
39209;BME280;24929;51.982;4.664;2022-11-23T11:52:16;75558.56;;;-143.36;nan
39209;BME280;24929;51.982;4.664;2022-11-23T11:55:17;75550.53;;;-143.36;nan
39209;BME280;24929;51.982;4.664;2022-11-23T11:57:48;75590.66;;;-143.36;nan
39209;BME280;24929;51.982;4.664;2022-11-23T12:00:18;75548.53;;;-143.36;nan
39209;BME280;24929;51.982;4.664;2022-11-23T12:05:24;75556.56;;;-143.36;nan
39209;BME280;24929;51.982;4.664;2022-11-23T12:08:14;75558.56;;;-143.36;nan
39209;BME280;24929;51.982;4.664;2022-11-23T12:10:52;75524.44;;;-143.36;nan
39209;BME280;24929;51.982;4.664;2022-11-23T12:13:21;75522.44;;;-143.36;nan
39209;BME280;24929;51.982;4.664;2022-11-23T12:15:53;75518.44;;;-143.36;nan
39209;BME280;24929;51.982;4.664;2022-11-23T12:23:35;75504.38;;;-143.36;nan
39209;BME280;24929;51.982;4.664;2022-11-23T12:32:24;75466.28;;;-143.36;nan
39209;BME280;24929;51.982;4.664;2022-11-23T12:35:06;75488.34;;;-143.36;nan
39209;BME280;24929;51.982;4.664;2022-11-23T12:40:34;75492.34;;;-143.36;nan
39209;BME280;24929;51.982;4.664;2022-11-23T12:43:23;75476.31;;;-143.36;nan
39209;BME280;24929;51.982;4.664;2022-11-23T12:56:53;75488.34;;;-143.36;nan
39209;BME280;24929;51.982;4.664;2022-11-23T12:59:21;75508.41;;;-143.36;nan
39209;BME280;24929;51.982;4.664;2022-11-23T13:01:56;75538.50;;;-143.36;nan
39209;BME280;24929;51.982;4.664;2022-11-23T13:21:44;75622.75;;;-143.36;nan
39209;BME280;24929;51.982;4.664;2022-11-23T13:24:28;75638.81;;;-143.36;nan
39209;BME280;24929;51.982;4.664;2022-11-23T13:32:58;75656.88;;;-143.36;nan
39209;BME280;24929;51.982;4.664;2022-11-23T13:40:22;75654.84;;;-143.36;nan
39209;BME280;24929;51.982;4.664;2022-11-23T13:42:50;75642.81;;;-143.36;nan
39209;BME280;24929;51.982;4.664;2022-11-23T13:50:37;75715.03;;;-143.36;nan
39209;BME280;24929;51.982;4.664;2022-11-23T13:53:34;75709.03;;;-143.36;nan
39209;BME280;24929;51.982;4.664;2022-11-23T13:58:55;75620.75;;;-143.36;nan
39209;BME280;24929;51.982;4.664;2022-11-23T14:04:26;75652.84;;;-143.36;nan
39209;BME280;24929;51.982;4.664;2022-11-23T14:07:02;75674.91;;;-143.36;nan
39209;BME280;24929;51.982;4.664;2022-11-23T14:12:47;75620.75;;;-143.36;nan
39209;BME280;24929;51.982;4.664;2022-11-23T14:15:19;75640.81;;;-143.36;nan
39209;BME280;24929;51.982;4.664;2022-11-23T14:18:08;75642.81;;;-143.36;nan
39209;BME280;24929;51.982;4.664;2022-11-23T14:34:32;75676.94;;;-143.36;nan
39209;BME280;24929;51.982;4.664;2022-11-23T14:40:02;75678.94;;;-143.36;nan
39209;BME280;24929;51.982;4.664;2022-11-23T14:42:30;75701.00;;;-143.36;nan
39209;BME280;24929;51.982;4.664;2022-11-23T14:45:01;75652.84;;;-143.36;nan
39209;BME280;24929;51.982;4.664;2022-11-23T14:47:30;75660.88;;;-143.36;nan
39209;BME280;24929;51.982;4.664;2022-11-23T14:49:56;75678.94;;;-143.36;nan
39209;BME280;24929;51.982;4.664;2022-11-23T14:52:27;75674.91;;;-143.36;nan
39209;BME280;24929;51.982;4.664;2022-11-23T14:54:56;75686.97;;;-143.36;nan
39209;BME280;24929;51.982;4.664;2022-11-23T14:57:26;75690.97;;;-143.36;nan
39209;BME280;24929;51.982;4.664;2022-11-23T14:59:58;75680.94;;;-143.36;nan
39209;BME280;24929;51.982;4.664;2022-11-23T15:02:35;75654.84;;;-143.36;nan
39209;BME280;24929;51.982;4.664;2022-11-23T15:05:11;75670.91;;;-143.36;nan
39209;BME280;24929;51.982;4.664;2022-11-23T15:07:47;75658.88;;;-143.36;nan
39209;BME280;24929;51.982;4.664;2022-11-23T15:13:28;75674.91;;;-143.36;nan
39209;BME280;24929;51.982;4.664;2022-11-23T15:19:27;75656.88;;;-143.36;nan
39209;BME280;24929;51.982;4.664;2022-11-23T15:21:54;75723.06;;;-143.36;nan
39209;BME280;24929;51.982;4.664;2022-11-23T15:24:22;75769.22;;;-143.36;nan
39209;BME280;24929;51.982;4.664;2022-11-23T15:26:49;75803.31;;;-143.36;nan
39209;BME280;24929;51.982;4.664;2022-11-23T15:29:31;75699.00;;;-143.36;nan
39209;BME280;24929;51.982;4.664;2022-11-23T15:31:57;75709.03;;;-143.36;nan
39209;BME280;24929;51.982;4.664;2022-11-23T15:34:23;75787.28;;;-143.36;nan